Time;durP1;ratioP1;P1;durP2;ratioP2;P2;SDS_P1;SDS_P2;PMS_P1;PMS_P2;Temp;Humidity;BMP_temperature;BMP_pressure;BME280_temperature;BME280_humidity;BME280_pressure;Samples;Min_cycle;Max_cycle;Signal;HPM_P1;HPM_P2
2021/08/21 00:00:31;;;;;;;8.38;4.07;;;;;;;15.27;89.82;96465.72;5067869;28;20048;-79
2021/08/21 00:02:57;;;;;;;13.95;4.50;;;;;;;15.32;89.59;96464.19;5086953;28;20055;-79
2021/08/21 00:05:22;;;;;;;6.07;4.00;;;;;;;15.29;89.74;96464.53;5067661;28;20135;-79
2021/08/21 00:07:49;;;;;;;6.78;3.80;;;;;;;15.31;90.07;96473.13;5082047;28;20097;-79
2021/08/21 00:10:15;;;;;;;6.80;4.20;;;;;;;15.15;90.17;96457.38;5082016;28;20127;-79
2021/08/21 00:12:42;;;;;;;6.67;4.30;;;;;;;15.15;90.55;96461.88;5077061;28;20028;-79
2021/08/21 00:15:11;;;;;;;5.90;4.00;;;;;;;15.05;90.75;96462.13;5082247;28;20028;-79
2021/08/21 00:17:37;;;;;;;13.80;5.00;;;;;;;15.00;91.10;96465.34;5061438;28;20032;-79
2021/08/21 00:20:05;;;;;;;6.50;4.13;;;;;;;14.95;91.50;96466.88;5071106;28;20017;-79
2021/08/21 00:22:32;;;;;;;7.10;4.23;;;;;;;14.94;91.41;96466.06;5076284;28;20032;-80
2021/08/21 00:24:58;;;;;;;9.37;4.60;;;;;;;14.97;91.51;96460.41;5081891;28;20074;-78
2021/08/21 00:27:26;;;;;;;6.77;4.47;;;;;;;14.95;91.09;96465.03;5093527;28;20360;-79
2021/08/21 00:29:52;;;;;;;7.97;4.30;;;;;;;14.95;91.16;96462.41;5077545;28;20111;-79
2021/08/21 00:32:18;;;;;;;6.23;4.30;;;;;;;14.98;91.45;96461.22;5067312;28;20025;-79
2021/08/21 00:34:44;;;;;;;8.13;4.33;;;;;;;14.85;92.09;96460.03;5063177;28;20052;-79
2021/08/21 00:37:10;;;;;;;7.67;3.90;;;;;;;14.89;91.89;96457.00;5086945;28;20025;-78
2021/08/21 00:39:36;;;;;;;6.80;4.10;;;;;;;14.89;92.01;96460.50;5074996;28;20089;-79
2021/08/21 00:42:03;;;;;;;5.90;4.10;;;;;;;14.77;92.39;96464.56;5081954;28;20032;-79
2021/08/21 00:44:30;;;;;;;9.80;5.10;;;;;;;14.59;93.75;96459.63;5078250;28;20054;-79
2021/08/21 00:47:15;;;;;;;8.73;4.07;;;;;;;14.68;94.07;96469.09;5067199;28;20599;-79
2021/08/21 00:49:43;;;;;;;6.80;4.03;;;;;;;14.61;93.26;96468.19;5077544;28;20036;-79
2021/08/21 00:52:13;;;;;;;6.57;4.23;;;;;;;14.62;94.22;96467.19;5069162;28;20063;-79
2021/08/21 00:54:39;;;;;;;6.30;3.80;;;;;;;14.63;93.68;96466.19;5070362;28;20154;-79
2021/08/21 00:57:10;;;;;;;6.40;3.60;;;;;;;14.60;93.78;96462.06;5060780;28;20033;-79
2021/08/21 00:59:37;;;;;;;6.03;3.70;;;;;;;14.57;94.66;96459.78;5089004;28;20028;-79
2021/08/21 01:02:04;;;;;;;6.60;4.03;;;;;;;14.56;94.65;96458.13;5076095;28;20028;-78
2021/08/21 01:04:31;;;;;;;8.83;4.53;;;;;;;14.49;94.72;96456.38;5092005;28;20044;-78
2021/08/21 01:06:57;;;;;;;6.60;4.40;;;;;;;14.52;94.59;96458.66;5091642;28;20038;-78
2021/08/21 01:09:24;;;;;;;6.60;4.47;;;;;;;14.44;95.79;96458.72;5087887;28;20701;-79
2021/08/21 01:11:49;;;;;;;7.67;4.30;;;;;;;14.47;94.94;96453.06;5090859;28;20038;-80
2021/08/21 01:14:15;;;;;;;7.10;3.70;;;;;;;14.45;94.79;96455.06;5066272;28;20025;-79
2021/08/21 01:16:41;;;;;;;6.47;3.80;;;;;;;14.49;94.36;96454.53;5067282;28;20070;-79
2021/08/21 01:19:08;;;;;;;7.10;3.70;;;;;;;14.47;93.92;96453.06;5069645;28;20029;-79
2021/08/21 01:21:34;;;;;;;5.33;3.43;;;;;;;14.49;93.48;96451.06;5080485;28;20031;-79
2021/08/21 01:23:59;;;;;;;6.63;3.73;;;;;;;14.48;93.71;96449.41;5067726;28;20020;-79
2021/08/21 01:26:30;;;;;;;6.23;3.50;;;;;;;14.51;93.66;96446.44;5078410;28;20028;-79
2021/08/21 01:29:06;;;;;;;6.03;3.37;;;;;;;14.51;93.47;96443.78;5077408;28;20065;-79
2021/08/21 01:31:52;;;;;;;7.10;4.10;;;;;;;14.46;93.74;96448.78;5069883;28;20028;-79
2021/08/21 01:34:19;;;;;;;6.63;3.57;;;;;;;14.44;94.22;96442.81;5067631;28;20024;-79
2021/08/21 01:36:48;;;;;;;8.00;3.97;;;;;;;14.38;94.00;96445.19;5068334;28;20571;-79
2021/08/21 01:39:32;;;;;;;5.70;3.43;;;;;;;14.35;94.55;96445.56;5075046;28;20046;-80
2021/08/21 01:42:03;;;;;;;6.27;3.80;;;;;;;14.32;94.47;96442.44;5079780;28;20025;-79
2021/08/21 01:44:31;;;;;;;7.43;3.70;;;;;;;14.25;94.39;96452.06;5059344;28;20854;-79
2021/08/21 01:46:57;;;;;;;7.87;3.70;;;;;;;14.22;94.50;96439.19;5081734;28;20020;-79
2021/08/21 01:49:24;;;;;;;5.40;3.47;;;;;;;14.24;94.14;96440.66;5085764;28;20088;-79
2021/08/21 01:52:03;;;;;;;7.60;3.90;;;;;;;14.22;94.14;96442.69;5065728;28;20024;-79
2021/08/21 01:54:30;;;;;;;10.40;3.95;;;;;;;14.26;93.26;96440.50;5080553;28;20043;-79
2021/08/21 01:56:58;;;;;;;7.00;3.67;;;;;;;14.27;93.14;96440.31;5064296;28;20037;-79
2021/08/21 01:59:41;;;;;;;6.13;3.70;;;;;;;14.35;93.20;96450.84;5065301;28;20024;-79
2021/08/21 02:02:15;;;;;;;7.57;3.97;;;;;;;14.25;93.75;96439.69;5081162;28;20031;-79
2021/08/21 02:04:50;;;;;;;6.80;4.53;;;;;;;14.25;94.21;96436.19;5073063;28;20035;-79
2021/08/21 02:07:16;;;;;;;6.07;3.93;;;;;;;14.27;93.68;96439.50;5074074;28;20107;-79
2021/08/21 02:09:41;;;;;;;5.03;3.47;;;;;;;14.20;94.74;96435.91;5065548;28;20093;-79
2021/08/21 02:12:08;;;;;;;6.47;3.90;;;;;;;14.18;94.51;96429.97;5068841;28;20043;-79
2021/08/21 02:14:39;;;;;;;7.10;4.27;;;;;;;14.01;95.76;96437.19;5077696;28;20067;-79
2021/08/21 02:17:05;;;;;;;6.40;4.27;;;;;;;13.93;96.73;96437.25;5080603;28;20041;-78
2021/08/21 02:19:38;;;;;;;7.67;4.53;;;;;;;13.91;96.54;96438.22;5077801;28;20038;-79
2021/08/21 02:22:15;;;;;;;7.60;4.57;;;;;;;13.85;97.13;96433.66;5061003;28;20037;-78
2021/08/21 02:24:51;;;;;;;6.13;4.20;;;;;;;13.86;97.22;96437.13;5071885;28;20024;-80
2021/08/21 02:27:21;;;;;;;6.27;4.07;;;;;;;13.82;97.46;96436.66;5086065;28;20405;-78
2021/08/21 02:29:48;;;;;;;6.40;4.17;;;;;;;13.83;97.56;96433.00;5089279;28;20021;-79
2021/08/21 02:32:13;;;;;;;6.30;3.97;;;;;;;13.77;98.13;96433.69;5075056;28;20035;-79
2021/08/21 02:34:39;;;;;;;7.63;4.53;;;;;;;13.71;98.52;96431.75;5086170;28;20025;-79
2021/08/21 02:37:06;;;;;;;8.87;4.33;;;;;;;13.72;98.77;96427.31;5063651;28;20096;-79
2021/08/21 02:39:31;;;;;;;8.13;4.77;;;;;;;13.70;98.59;96418.72;5086906;28;20028;-79
2021/08/21 02:41:57;;;;;;;9.97;5.37;;;;;;;13.63;99.18;96423.88;5063864;28;20071;-79
2021/08/21 02:44:22;;;;;;;7.50;4.43;;;;;;;13.64;99.73;96421.06;5087420;28;20025;-79
2021/08/21 02:46:50;;;;;;;7.20;4.53;;;;;;;13.63;99.35;96429.16;5085446;28;20033;-80
2021/08/21 02:49:17;;;;;;;6.77;4.67;;;;;;;13.59;99.47;96422.59;5067031;28;20101;-79
2021/08/21 02:51:43;;;;;;;7.83;4.50;;;;;;;13.58;99.46;96427.06;5053435;28;20397;-79
2021/08/21 02:54:08;;;;;;;8.00;4.57;;;;;;;13.61;99.33;96412.66;5057528;28;20024;-79
2021/08/21 02:56:34;;;;;;;6.77;4.27;;;;;;;13.62;99.78;96411.66;5077210;28;20103;-79
2021/08/21 02:59:00;;;;;;;8.07;4.80;;;;;;;13.60;99.73;96421.59;5067423;28;20107;-79
2021/08/21 03:01:26;;;;;;;7.07;4.57;;;;;;;13.55;100.00;96416.00;5082484;28;20031;-79
2021/08/21 03:03:53;;;;;;;9.17;5.87;;;;;;;13.47;100.00;96416.03;5059781;28;20029;-79
2021/08/21 03:06:19;;;;;;;8.20;4.47;;;;;;;13.48;100.00;96420.31;5080406;28;20507;-79
2021/08/21 03:08:44;;;;;;;7.03;4.87;;;;;;;13.46;100.00;96422.31;5087981;28;20045;-78
2021/08/21 03:11:11;;;;;;;7.17;4.73;;;;;;;13.39;100.00;96416.91;5064701;28;20033;-78
2021/08/21 03:13:57;;;;;;;6.87;4.53;;;;;;;13.39;100.00;96417.72;5079190;28;20024;-79
2021/08/21 03:16:23;;;;;;;9.33;5.27;;;;;;;13.38;100.00;96413.44;5073397;28;20082;-79
2021/08/21 03:18:49;;;;;;;7.37;4.83;;;;;;;13.37;100.00;96414.41;5060644;28;20198;-78
2021/08/21 03:21:15;;;;;;;8.30;4.63;;;;;;;13.31;100.00;96412.50;5062112;28;20063;-78
2021/08/21 03:23:42;;;;;;;9.50;4.83;;;;;;;13.32;100.00;96408.84;5079949;28;20643;-79
2021/08/21 03:26:09;;;;;;;6.80;4.57;;;;;;;13.32;100.00;96411.47;5080168;28;20020;-79
2021/08/21 03:28:37;;;;;;;8.60;5.10;;;;;;;13.26;100.00;96414.00;5076611;28;20035;-78
2021/08/21 03:31:03;;;;;;;8.17;4.70;;;;;;;13.22;100.00;96416.13;5067745;28;20025;-79
2021/08/21 03:33:30;;;;;;;7.50;4.57;;;;;;;13.20;100.00;96421.56;5082498;28;20020;-79
2021/08/21 03:35:55;;;;;;;7.90;4.80;;;;;;;13.23;100.00;96415.13;5084450;28;20042;-78
2021/08/21 03:38:23;;;;;;;8.27;4.93;;;;;;;13.20;100.00;96418.09;5067629;28;20021;-79
2021/08/21 03:41:05;;;;;;;7.53;4.80;;;;;;;13.21;100.00;96419.72;5064789;28;20033;-78
2021/08/21 03:43:40;;;;;;;8.90;4.53;;;;;;;13.13;100.00;96417.13;5072960;28;20681;-78
2021/08/21 03:46:07;;;;;;;6.90;4.67;;;;;;;13.11;100.00;96419.09;5075875;28;20028;-77
2021/08/21 03:48:33;;;;;;;6.90;4.60;;;;;;;13.13;100.00;96423.22;5076726;28;20027;-79
2021/08/21 03:50:59;;;;;;;8.10;4.53;;;;;;;13.16;100.00;96419.44;5057598;28;20045;-79
2021/08/21 03:53:25;;;;;;;6.87;4.47;;;;;;;13.16;100.00;96412.34;5081535;28;20104;-80
2021/08/21 03:56:03;;;;;;;6.97;4.77;;;;;;;13.16;100.00;96414.16;5062212;28;20030;-79
2021/08/21 03:58:33;;;;;;;8.23;4.40;;;;;;;13.15;100.00;96417.81;5061951;28;20033;-78
2021/08/21 04:01:00;;;;;;;7.43;4.63;;;;;;;13.12;100.00;96421.59;5070510;28;20032;-78
2021/08/21 04:03:25;;;;;;;9.40;4.43;;;;;;;13.14;100.00;96424.06;5079864;28;20110;-78
2021/08/21 04:05:55;;;;;;;7.60;4.87;;;;;;;13.09;100.00;96429.03;5075647;28;20098;-79
2021/08/21 04:08:21;;;;;;;7.50;4.60;;;;;;;13.09;100.00;96421.13;5071162;28;20040;-79
2021/08/21 04:10:47;;;;;;;9.23;4.67;;;;;;;13.11;100.00;96432.31;5064258;28;20029;-79
2021/08/21 04:13:13;;;;;;;9.60;5.53;;;;;;;13.09;100.00;96426.41;5081681;28;20059;-78
2021/08/21 04:15:39;;;;;;;6.13;4.40;;;;;;;13.01;100.00;96431.69;5075693;28;20077;-79
2021/08/21 04:18:05;;;;;;;7.30;5.23;;;;;;;12.93;100.00;96433.34;5090157;28;20048;-79
2021/08/21 04:20:31;;;;;;;7.07;4.63;;;;;;;12.90;100.00;96424.94;5084695;28;20106;-80
2021/08/21 04:22:57;;;;;;;8.23;4.97;;;;;;;12.97;100.00;96426.75;5060876;28;20032;-79
2021/08/21 04:25:24;;;;;;;8.33;4.60;;;;;;;12.87;100.00;96420.81;5071136;28;20024;-79
2021/08/21 04:27:56;;;;;;;9.30;5.33;;;;;;;12.90;100.00;96428.41;5057519;28;20067;-79
2021/08/21 04:30:22;;;;;;;6.47;4.57;;;;;;;12.96;100.00;96421.66;5076802;28;20028;-78
2021/08/21 04:32:48;;;;;;;7.47;4.67;;;;;;;12.95;100.00;96426.09;5082950;28;20025;-79
2021/08/21 04:35:16;;;;;;;8.40;5.00;;;;;;;13.01;100.00;96424.63;5065119;28;20032;-78
2021/08/21 04:37:41;;;;;;;7.07;4.90;;;;;;;13.04;100.00;96428.72;5070742;28;20267;-78
2021/08/21 04:40:10;;;;;;;8.47;4.90;;;;;;;13.03;100.00;96427.06;5064759;28;20063;-78
2021/08/21 04:42:36;;;;;;;7.93;4.63;;;;;;;13.03;100.00;96424.44;5062690;28;20096;-79
2021/08/21 04:45:03;;;;;;;9.83;5.17;;;;;;;13.05;100.00;96425.91;5089362;28;20034;-79
2021/08/21 04:47:33;;;;;;;8.30;4.70;;;;;;;13.02;100.00;96430.72;5059314;28;20061;-79
2021/08/21 04:49:59;;;;;;;8.60;5.37;;;;;;;13.06;100.00;96429.38;5075365;28;20084;-79
2021/08/21 04:52:25;;;;;;;7.20;4.57;;;;;;;13.12;100.00;96426.06;5065059;28;20047;-79
2021/08/21 04:54:52;;;;;;;8.53;4.77;;;;;;;13.20;100.00;96436.59;5072466;28;20024;-79
2021/08/21 04:57:18;;;;;;;7.50;4.30;;;;;;;13.26;100.00;96433.28;5063997;28;20047;-79
2021/08/21 04:59:46;;;;;;;7.00;4.47;;;;;;;13.33;100.00;96434.25;5080675;28;20035;-79
2021/08/21 05:02:11;;;;;;;11.00;5.10;;;;;;;13.38;100.00;96433.72;5062934;28;20072;-79
2021/08/21 05:04:37;;;;;;;9.10;5.07;;;;;;;13.51;99.26;96433.19;5069023;28;20039;-79
2021/08/21 05:07:03;;;;;;;7.50;4.87;;;;;;;13.62;99.10;96433.63;5082376;28;20051;-79
2021/08/21 05:09:29;;;;;;;9.57;5.10;;;;;;;13.67;98.26;96441.03;5074388;28;20040;-78
2021/08/21 05:12:00;;;;;;;7.63;4.83;;;;;;;13.82;97.90;96443.78;5069914;28;20073;-78
2021/08/21 05:14:31;;;;;;;6.47;4.43;;;;;;;13.80;98.42;96436.00;5079041;28;20035;-79
2021/08/21 05:16:58;;;;;;;9.27;4.60;;;;;;;13.96;98.01;96444.84;5065995;28;20101;-79
2021/08/21 05:19:49;;;;;;;8.10;4.93;;;;;;;14.07;96.79;96447.06;5079983;28;20082;-79
2021/08/21 05:24:50;;;;;;;7.73;4.40;;;;;;;14.34;95.24;96435.13;5084125;28;20094;-79
2021/08/21 05:27:17;;;;;;;6.63;4.03;;;;;;;14.49;95.33;96443.94;5088759;28;20104;-79
2021/08/21 05:29:43;;;;;;;8.50;4.37;;;;;;;14.81;93.83;96442.84;5073571;28;20107;-79
2021/08/21 05:32:10;;;;;;;7.13;4.23;;;;;;;15.04;92.09;96441.97;5092944;28;20082;-79
2021/08/21 05:34:37;;;;;;;7.03;4.40;;;;;;;15.03;92.11;96443.78;5069818;28;20036;-78
2021/08/21 05:37:03;;;;;;;8.80;4.73;;;;;;;15.27;90.65;96444.53;5090101;28;20029;-79
2021/08/21 05:39:32;;;;;;;9.47;4.53;;;;;;;15.54;89.17;96451.81;5095514;28;20388;-79
2021/08/21 05:41:58;;;;;;;7.63;4.90;;;;;;;15.61;89.43;96451.91;5082518;28;20033;-79
2021/08/21 05:44:24;;;;;;;6.97;4.50;;;;;;;15.66;88.82;96446.91;5076207;28;20040;-79
2021/08/21 05:46:50;;;;;;;6.13;4.17;;;;;;;15.34;90.14;96440.13;5081730;28;20025;-78
2021/08/21 05:49:16;;;;;;;7.90;4.23;;;;;;;15.08;91.18;96444.06;5093049;28;20517;-78
2021/08/21 05:51:41;;;;;;;6.37;4.33;;;;;;;15.40;90.88;96438.59;5070790;28;20493;-79
2021/08/21 05:54:07;;;;;;;6.33;4.43;;;;;;;15.68;88.42;96436.91;5058677;28;20021;-79
2021/08/21 05:56:33;;;;;;;7.07;4.73;;;;;;;15.65;89.68;96439.09;5072384;28;20074;-79
2021/08/21 05:58:58;;;;;;;5.50;3.90;;;;;;;15.63;88.83;96435.81;5084317;28;20035;-79
2021/08/21 06:01:24;;;;;;;8.02;4.32;;;;;;;16.05;87.79;96443.03;5063458;28;20043;-79
2021/08/21 06:03:51;;;;;;;9.53;4.67;;;;;;;16.23;87.32;96439.94;5082088;28;20032;-79
2021/08/21 06:06:19;;;;;;;7.10;4.57;;;;;;;16.57;85.31;96444.56;5082408;28;20029;-78
2021/08/21 06:08:46;;;;;;;7.80;5.25;;;;;;;17.05;83.59;96442.06;5067617;28;20032;-78
2021/08/21 06:11:11;;;;;;;8.20;4.63;;;;;;;17.41;82.15;96449.03;5063498;28;20035;-79
2021/08/21 06:13:40;;;;;;;8.63;4.38;;;;;;;17.58;80.67;96453.00;5068430;28;20016;-80
2021/08/21 06:16:06;;;;;;;5.93;3.60;;;;;;;17.70;81.51;96449.78;5065224;28;20047;-79
2021/08/21 06:18:32;;;;;;;8.00;4.10;;;;;;;18.24;78.39;96446.28;5076337;28;20058;-79
2021/08/21 06:20:58;;;;;;;7.63;4.47;;;;;;;17.64;81.11;96459.38;5069116;28;20035;-79
2021/08/21 06:23:23;;;;;;;6.75;4.28;;;;;;;17.66;81.23;96459.97;5060292;28;20050;-79
2021/08/21 06:25:49;;;;;;;8.32;4.65;;;;;;;17.61;81.27;96455.28;5077439;28;20028;-79
2021/08/21 06:28:16;;;;;;;7.13;4.72;;;;;;;17.72;82.27;96456.53;5064974;28;20028;-79
2021/08/21 06:30:41;;;;;;;8.32;5.07;;;;;;;18.30;79.51;96458.78;5075955;28;20119;-79
2021/08/21 06:33:08;;;;;;;8.13;4.72;;;;;;;18.04;79.87;96465.69;5059219;28;20047;-80
2021/08/21 06:35:34;;;;;;;10.52;4.38;;;;;;;17.74;81.78;96459.84;5079691;28;20051;-78
2021/08/21 06:37:59;;;;;;;8.63;5.50;;;;;;;18.32;80.52;96460.22;5080187;28;20085;-79
2021/08/21 06:40:25;;;;;;;7.57;5.32;;;;;;;18.86;77.44;96461.13;5084162;28;20094;-79
2021/08/21 06:42:51;;;;;;;6.95;4.25;;;;;;;19.44;74.65;96455.88;5080277;28;20024;-80
2021/08/21 06:45:24;;;;;;;;;;;;;;;19.75;72.82;96457.88;5074006;28;20053;-79
2021/08/21 06:47:49;;;;;;;5.85;3.60;;;;;;;19.87;73.10;96460.69;5060037;28;19999;-79
2021/08/21 06:50:15;;;;;;;16.65;4.55;;;;;;;20.40;71.15;96455.06;5059278;28;20047;-79
2021/08/21 06:52:41;;;;;;;6.93;3.70;;;;;;;20.70;69.90;96443.78;5071192;28;20055;-79
2021/08/21 06:55:07;;;;;;;7.45;4.00;;;;;;;20.59;70.46;96449.81;5056168;28;20051;-79
2021/08/21 06:57:33;;;;;;;8.93;4.03;;;;;;;20.15;71.45;96447.00;5082156;28;20167;-78
2021/08/21 06:59:59;;;;;;;7.45;3.78;;;;;;;20.39;70.28;96448.09;5082272;28;20128;-79
2021/08/21 07:02:25;;;;;;;6.28;3.92;;;;;;;20.99;69.39;96446.81;5056179;28;20087;-79
2021/08/21 07:04:52;;;;;;;5.60;3.78;;;;;;;20.85;69.24;96449.59;5091833;28;20595;-79
2021/08/21 07:07:17;;;;;;;6.82;3.20;;;;;;;21.78;65.94;96442.53;5080121;28;20584;-79
2021/08/21 07:09:43;;;;;;;5.60;3.30;;;;;;;21.76;65.48;96449.94;5078069;28;20036;-79
2021/08/21 07:12:09;;;;;;;6.15;3.38;;;;;;;22.55;64.26;96434.69;5068707;28;20069;-79
2021/08/21 07:14:34;;;;;;;5.75;3.55;;;;;;;22.54;62.85;96443.78;5069237;28;20032;-79
2021/08/21 07:17:00;;;;;;;5.88;3.67;;;;;;;21.88;65.86;96450.84;5060855;28;20564;-78
2021/08/21 07:19:26;;;;;;;6.18;3.83;;;;;;;21.58;67.01;96448.94;5084441;28;20024;-79
2021/08/21 07:21:53;;;;;;;5.95;3.95;;;;;;;21.73;67.44;96447.72;5059656;28;20086;-79
2021/08/21 07:24:22;;;;;;;7.95;3.80;;;;;;;22.15;66.01;96446.00;5070266;28;20062;-79
2021/08/21 07:26:48;;;;;;;7.20;3.78;;;;;;;22.03;67.18;96443.25;5075607;28;20021;-78
2021/08/21 07:29:14;;;;;;;6.57;3.53;;;;;;;21.91;66.37;96449.59;5055578;28;20044;-79
2021/08/21 07:31:39;;;;;;;8.65;3.72;;;;;;;22.16;66.75;96449.47;5079703;28;20044;-81
2021/08/21 07:34:05;;;;;;;4.85;3.17;;;;;;;22.12;64.48;96446.41;5044315;28;20052;-79
2021/08/21 07:36:31;;;;;;;4.75;2.90;;;;;;;22.18;66.55;96445.53;5076925;28;20051;-80
2021/08/21 07:38:57;;;;;;;6.40;3.22;;;;;;;22.28;64.46;96445.00;5073218;28;20078;-80
2021/08/21 07:41:23;;;;;;;4.13;2.90;;;;;;;22.00;61.41;96442.84;5063925;28;20025;-80
2021/08/21 07:43:48;;;;;;;7.15;3.03;;;;;;;22.05;61.31;96443.81;5072323;28;20042;-81
2021/08/21 07:46:14;;;;;;;5.55;2.88;;;;;;;22.00;61.22;96443.69;5065854;28;20036;-79
2021/08/21 07:48:40;;;;;;;16.95;3.60;;;;;;;21.94;60.80;96443.78;5080660;28;20036;-78
2021/08/21 07:51:06;;;;;;;4.75;2.80;;;;;;;21.89;61.04;96442.56;5079338;28;20048;-79
2021/08/21 07:53:31;;;;;;;5.07;2.65;;;;;;;21.98;61.08;96435.06;5072844;28;20050;-79
2021/08/21 07:55:57;;;;;;;5.95;3.13;;;;;;;22.33;59.99;96445.94;5072631;28;20033;-79
2021/08/21 07:58:23;;;;;;;4.80;2.88;;;;;;;22.18;60.65;96440.19;5086110;28;20031;-78
2021/08/21 08:00:48;;;;;;;5.80;3.40;;;;;;;22.08;62.08;96447.91;5080349;28;20028;-79
2021/08/21 08:03:17;;;;;;;4.88;2.72;;;;;;;22.45;60.59;96437.13;5077436;28;20116;-78
2021/08/21 08:05:45;;;;;;;5.60;3.15;;;;;;;22.45;60.38;96445.97;5065840;28;20029;-79
2021/08/21 08:08:11;;;;;;;4.47;3.15;;;;;;;22.76;59.33;96447.53;5080275;28;20028;-78
2021/08/21 08:10:37;;;;;;;6.55;3.30;;;;;;;22.56;58.07;96447.03;5060611;28;20078;-79
2021/08/21 08:13:04;;;;;;;6.05;3.20;;;;;;;22.83;57.21;96445.56;5078618;28;20020;-81
2021/08/21 08:15:29;;;;;;;7.25;3.20;;;;;;;22.43;57.72;96449.91;5064538;28;20029;-78
2021/08/21 08:17:55;;;;;;;5.28;3.10;;;;;;;22.95;57.82;96445.63;5067940;28;20041;-78
2021/08/21 08:20:25;;;;;;;7.18;3.15;;;;;;;23.74;54.30;96450.59;5070977;28;20312;-79
2021/08/21 08:22:51;;;;;;;5.28;3.10;;;;;;;23.79;54.32;96445.34;5084497;28;20063;-79
2021/08/21 08:25:17;;;;;;;5.65;2.92;;;;;;;24.31;53.37;96447.97;5076997;28;20056;-79
2021/08/21 08:27:45;;;;;;;6.20;3.20;;;;;;;25.21;50.79;96445.44;5071305;28;20028;-79
2021/08/21 08:30:11;;;;;;;6.70;3.30;;;;;;;24.20;52.85;96457.69;5072997;28;20080;-79
2021/08/21 08:32:36;;;;;;;5.03;2.83;;;;;;;25.04;52.10;96454.31;5074644;28;20130;-79
2021/08/21 08:35:03;;;;;;;8.27;3.45;;;;;;;24.76;52.02;96459.78;5073675;28;20013;-79
2021/08/21 08:37:28;;;;;;;5.15;3.53;;;;;;;23.88;53.12;96454.66;5064651;28;20123;-79
2021/08/21 08:39:54;;;;;;;4.90;3.40;;;;;;;25.19;50.38;96448.41;5074676;28;20688;-80
2021/08/21 08:42:21;;;;;;;5.93;3.20;;;;;;;24.17;53.53;96460.03;5086922;28;20048;-80
2021/08/21 08:44:48;;;;;;;6.05;3.38;;;;;;;24.07;53.80;96457.16;5071596;28;20040;-79
2021/08/21 08:47:15;;;;;;;6.53;3.20;;;;;;;25.17;50.51;96451.31;5076057;28;20039;-80
2021/08/21 08:49:44;;;;;;;5.85;2.63;;;;;;;26.48;48.54;96444.34;5072965;28;20374;-79
2021/08/21 08:52:10;;;;;;;5.20;2.95;;;;;;;24.52;52.32;96454.56;5066410;28;20537;-79
2021/08/21 08:54:35;;;;;;;3.88;2.60;;;;;;;25.12;51.64;96448.56;5077305;28;20055;-80
2021/08/21 08:57:01;;;;;;;5.47;3.38;;;;;;;25.19;51.38;96442.22;5078849;28;20020;-79
2021/08/21 08:59:29;;;;;;;5.88;3.35;;;;;;;26.17;48.47;96445.91;5074258;28;20052;-80
2021/08/21 09:01:55;;;;;;;4.78;3.10;;;;;;;26.68;48.15;96438.34;5077121;28;20028;-80
2021/08/21 09:04:23;;;;;;;6.05;3.60;;;;;;;27.08;46.96;96438.94;5065480;28;20527;-80
2021/08/21 09:06:50;;;;;;;5.85;3.50;;;;;;;25.08;50.68;96446.56;5079168;28;20521;-80
2021/08/21 09:09:21;;;;;;;5.35;3.50;;;;;;;25.98;48.97;96442.72;5070545;28;20033;-79
2021/08/21 09:11:52;;;;;;;4.82;3.38;;;;;;;27.03;47.32;96440.53;5082990;28;20033;-80
2021/08/21 09:14:36;;;;;;;6.30;3.60;;;;;;;27.25;47.13;96447.72;5074993;28;20020;-80
2021/08/21 09:17:20;;;;;;;5.65;3.38;;;;;;;27.13;46.88;96441.69;5077341;28;20036;-80
2021/08/21 09:19:47;;;;;;;5.60;3.67;;;;;;;26.62;47.28;96439.34;5078477;28;20080;-81
2021/08/21 09:22:13;;;;;;;5.93;3.58;;;;;;;28.00;43.10;96437.56;5065824;28;20022;-79
2021/08/21 09:24:41;;;;;;;8.65;3.92;;;;;;;27.72;44.27;96441.50;5083450;28;20029;-80
2021/08/21 09:27:25;;;;;;;7.28;3.90;;;;;;;27.64;44.02;96431.19;5094684;28;20082;-79
2021/08/21 09:30:05;;;;;;;5.53;3.30;;;;;;;27.40;43.98;96434.31;5078345;28;20040;-79
2021/08/21 09:32:31;;;;;;;5.75;3.20;;;;;;;28.28;41.88;96433.59;5076828;28;20028;-80
2021/08/21 09:35:23;;;;;;;8.52;3.92;;;;;;;27.60;44.12;96433.63;5079822;28;20069;-79
2021/08/21 09:37:55;;;;;;;7.10;3.67;;;;;;;27.60;42.92;96443.59;5048387;28;20044;-80
2021/08/21 09:40:31;;;;;;;8.40;3.20;;;;;;;26.38;45.37;96438.84;5076500;28;20036;-79
2021/08/21 09:42:57;;;;;;;7.07;3.13;;;;;;;27.33;44.27;96441.84;5075364;28;20155;-79
2021/08/21 09:45:25;;;;;;;7.15;3.63;;;;;;;27.93;43.26;96442.41;5074280;28;20048;-79
2021/08/21 09:48:07;;;;;;;6.30;3.55;;;;;;;27.81;43.42;96444.53;5078287;28;20059;-79
2021/08/21 09:50:39;;;;;;;6.43;3.60;;;;;;;27.26;44.07;96441.22;5086864;28;20028;-78
2021/08/21 09:53:10;;;;;;;6.05;3.00;;;;;;;27.70;42.79;96433.66;5085855;28;20020;-79
2021/08/21 09:55:37;;;;;;;7.93;3.57;;;;;;;29.12;40.91;96426.13;5080934;28;20032;-79
2021/08/21 09:58:20;;;;;;;6.88;3.92;;;;;;;28.37;42.04;96432.00;5079201;28;20031;-79
2021/08/21 10:00:48;;;;;;;7.55;3.63;;;;;;;27.53;44.10;96437.59;5079045;28;20487;-78
2021/08/21 10:03:15;;;;;;;6.13;3.42;;;;;;;27.84;43.02;96428.63;5081440;28;20027;-79
2021/08/21 10:05:47;;;;;;;6.20;4.03;;;;;;;27.34;43.26;96431.84;5074698;28;20111;-79
2021/08/21 10:08:15;;;;;;;5.97;3.70;;;;;;;28.28;41.93;96432.81;5085256;28;20063;-79
2021/08/21 10:10:50;;;;;;;7.22;3.92;;;;;;;28.47;41.37;96430.41;5082738;28;20048;-79
2021/08/21 10:13:27;;;;;;;6.40;4.05;;;;;;;27.85;41.96;96435.63;5075545;28;20025;-79
2021/08/21 10:15:55;;;;;;;7.25;3.90;;;;;;;28.07;41.60;96434.63;5068632;28;20059;-80
2021/08/21 10:18:23;;;;;;;5.32;3.67;;;;;;;28.06;41.91;96433.81;5073573;28;20020;-79
2021/08/21 10:20:49;;;;;;;6.93;3.85;;;;;;;28.42;40.77;96428.53;5061267;28;20033;-80
2021/08/21 10:23:18;;;;;;;6.88;4.00;;;;;;;29.33;39.68;96419.59;5075339;28;20028;-79
2021/08/21 10:26:25;;;;;;;6.82;4.10;;;;;;;29.01;38.97;96422.63;5076045;28;20139;-79
2021/08/21 10:28:53;;;;;;;5.75;3.80;;;;;;;29.16;39.13;96416.38;5051630;28;20033;-79
2021/08/21 10:31:37;;;;;;;6.50;3.40;;;;;;;27.99;41.79;96419.72;5074641;28;20540;-78
2021/08/21 10:34:04;;;;;;;5.95;3.95;;;;;;;27.77;42.88;96417.25;5087063;28;20537;-78
2021/08/21 10:36:42;;;;;;;6.88;3.75;;;;;;;28.86;40.19;96417.19;5090497;28;20044;-79
2021/08/21 10:39:21;;;;;;;5.55;3.50;;;;;;;28.75;39.15;96416.38;5078194;28;20107;-79
2021/08/21 10:41:49;;;;;;;4.60;3.28;;;;;;;27.42;43.31;96409.72;5053746;28;20037;-79
2021/08/21 10:44:41;;;;;;;6.18;4.00;;;;;;;26.21;45.90;96416.56;5069878;28;20020;-79
2021/08/21 10:47:08;;;;;;;7.25;3.95;;;;;;;26.28;45.95;96411.78;5088860;28;20090;-79
2021/08/21 10:49:43;;;;;;;6.15;3.28;;;;;;;27.63;43.23;96402.53;5076041;28;20434;-79
2021/08/21 10:52:53;;;;;;;6.28;3.78;;;;;;;28.26;42.08;96394.38;5087737;28;20028;-81
2021/08/21 10:55:42;;;;;;;8.02;3.80;;;;;;;29.11;39.27;96398.25;5078173;28;20036;-79
2021/08/21 10:58:19;;;;;;;6.63;3.70;;;;;;;28.49;40.71;96407.44;5081653;28;20445;-80
2021/08/21 11:01:01;;;;;;;7.88;4.13;;;;;;;29.52;38.34;96400.03;5060864;28;20032;-80
2021/08/21 11:03:29;;;;;;;5.03;3.28;;;;;;;28.12;40.62;96407.59;5087175;28;20036;-80
2021/08/21 11:05:56;;;;;;;5.00;3.50;;;;;;;28.88;39.27;96402.31;5064669;28;20075;-77
2021/08/21 11:08:28;;;;;;;6.28;3.97;;;;;;;29.41;39.32;96393.00;5053388;28;20403;-79
2021/08/21 11:11:09;;;;;;;5.75;3.92;;;;;;;29.27;38.79;96393.59;5066497;28;20032;-79
2021/08/21 11:14:00;;;;;;;5.72;3.65;;;;;;;29.36;38.18;96391.16;5081924;28;20063;-79
2021/08/21 11:16:54;;;;;;;5.82;3.65;;;;;;;28.45;40.28;96392.03;5074678;28;20044;-79
2021/08/21 11:19:32;;;;;;;5.70;4.07;;;;;;;27.97;42.38;96394.88;5081512;28;20032;-79
2021/08/21 11:22:10;;;;;;;9.73;4.80;;;;;;;27.63;42.48;96386.31;5076613;28;20039;-80
2021/08/21 11:24:38;;;;;;;6.20;3.92;;;;;;;27.47;43.35;96390.88;5066249;28;20051;-79
2021/08/21 11:27:22;;;;;;;7.28;4.30;;;;;;;27.46;43.33;96384.66;5064462;28;20024;-79
2021/08/21 11:33:00;;;;;;;8.05;4.72;;;;;;;27.23;43.71;96391.28;5095608;28;20045;-79
2021/08/21 11:35:59;;;;;;;6.38;4.03;;;;;;;28.04;42.31;96381.09;5085093;28;20093;-79
2021/08/21 11:38:33;;;;;;;6.55;4.60;;;;;;;27.31;42.98;96378.34;5071329;28;20494;-79
2021/08/21 11:41:09;;;;;;;7.97;4.05;;;;;;;29.78;39.19;96365.56;5067011;28;20032;-79
2021/08/21 11:43:40;;;;;;;5.50;4.07;;;;;;;29.82;38.42;96370.13;5060899;28;21884;-78
2021/08/21 11:46:06;;;;;;;7.47;4.18;;;;;;;30.19;38.33;96363.44;5085526;28;20039;-78